NWWW METAR and TAF weather

Enter ICAO airport designator
Station Type Date Time Source
NWWW METAR 2022/01/18 07:00 UTC NOAA

NWWW 180700Z AUTO VRB03KT 9999 BKN050 OVC060 28/18 Q1007 BECMG 11015KT


Station Type Date Time Source
NWWW Decoded METAR 2022/01/18 07:00 UTC NOAA

La Tontouta Nlle-Caledonie , New Caledonia (NWWW) 22-01S 166-13E 14M
Jan 18, 2022 - 02:00 AM EST / 2022.01.18 0700 UTC
Wind: Variable at 3 MPH (3 KT):0
Visibility: greater than 7 mile(s):0
Sky conditions: overcast
Temperature: 82 F (28 C)
Dew Point: 64 F (18 C)
Relative Humidity: 54%
Pressure (altimeter): 29.74 in. Hg (1007 hPa)
ob: NWWW 180700Z AUTO VRB03KT 9999 BKN050 OVC060 28/18 Q1007 BECMG 11015KT
cycle: 7

Station Type Date Time Source
NWWW TAF 2022/01/17 18:42 UTC NOAA

TAF NWWW 171700Z 1718/1818 VRB02KT 9999 SCT050
BECMG 1722/1724 15012KT PROB40
TEMPO 1801/1806 SCT030TCU BKN040
BECMG 1806/1808 VRB02KT

Example: see airport list